Time;durP1;ratioP1;P1;durP2;ratioP2;P2;SDS_P1;SDS_P2;PMS_P1;PMS_P2;Temp;Humidity;BMP_temperature;BMP_pressure;BME280_temperature;BME280_humidity;BME280_pressure;Samples;Min_cycle;Max_cycle;Signal;HPM_P1;HPM_P2
2022/01/20 00:01:46;;;;;;;1.33;0.80;;;22.40;47.50;;;;;;5029693;28;20687;-42
2022/01/20 00:04:23;;;;;;;2.35;1.10;;;22.40;47.50;;;;;;5029732;28;20220;-43
2022/01/20 00:25:53;;;;;;;5.78;1.10;;;22.70;46.90;;;;;;5029594;28;20235;-46
2022/01/20 00:26:45;;;;;;;1.65;0.90;;;22.70;46.80;;;;;;5029732;28;20602;-46
2022/01/20 00:29:24;;;;;;;1.70;0.90;;;22.70;46.70;;;;;;5029618;28;20568;-43
2022/01/20 00:37:34;;;;;;;1.85;1.00;;;22.80;46.60;;;;;;5029004;28;20203;-44
2022/01/20 00:40:05;;;;;;;2.33;0.93;;;22.90;46.60;;;;;;5029398;28;20196;-44
2022/01/20 00:42:37;;;;;;;2.17;0.90;;;22.90;46.50;;;;;;5028940;28;20216;-53
2022/01/20 00:45:09;;;;;;;1.80;0.73;;;22.90;46.50;;;;;;5029742;28;20727;-43
2022/01/20 00:47:41;;;;;;;1.92;0.80;;;23.00;46.70;;;;;;5029241;28;20192;-42
2022/01/20 00:50:12;;;;;;;1.00;0.80;;;23.00;46.70;;;;;;5029337;28;20251;-43
2022/01/20 00:52:43;;;;;;;1.25;0.80;;;23.00;46.60;;;;;;5029281;28;20708;-47
2022/01/20 00:55:14;;;;;;;1.00;0.80;;;23.00;46.50;;;;;;5029010;28;20754;-43
2022/01/20 00:57:46;;;;;;;1.75;0.90;;;23.10;46.40;;;;;;5029711;28;20258;-43
2022/01/20 01:00:17;;;;;;;1.63;0.98;;;23.10;46.30;;;;;;5029148;28;20192;-48
2022/01/20 01:02:48;;;;;;;1.85;0.98;;;23.20;46.20;;;;;;5029750;28;20197;-44
2022/01/20 01:05:19;;;;;;;1.58;0.90;;;23.20;46.20;;;;;;5028396;28;20696;-43
2022/01/20 01:07:51;;;;;;;1.88;1.00;;;23.20;46.20;;;;;;5028964;28;20664;-43
2022/01/20 01:10:23;;;;;;;1.08;0.60;;;23.30;46.30;;;;;;5027931;28;20208;-43
2022/01/20 01:12:59;;;;;;;2.70;1.20;;;23.30;46.30;;;;;;5029577;28;20227;-42
2022/01/20 01:15:34;;;;;;;2.13;1.05;;;23.30;46.20;;;;;;5028409;28;20308;-44
2022/01/20 01:23:39;;;;;;;1.63;0.90;;;23.40;46.00;;;;;;5028142;28;20250;-43
2022/01/20 01:26:11;;;;;;;6.95;1.65;;;23.50;46.00;;;;;;5028181;28;20212;-43
2022/01/20 01:28:44;;;;;;;16.42;3.25;;;23.50;46.00;;;;;;5028061;28;20217;-43
2022/01/20 01:31:31;;;;;;;19.30;3.22;;;23.60;45.90;;;;;;5028245;28;20270;-49
2022/01/20 01:34:05;;;;;;;17.08;3.70;;;23.60;45.70;;;;;;5025612;28;20219;-43
2022/01/20 01:36:48;;;;;;;15.88;3.45;;;23.60;45.70;;;;;;5028073;28;20203;-51
2022/01/20 01:39:19;;;;;;;19.35;4.38;;;23.70;45.80;;;;;;5027933;28;20192;-45
2022/01/20 01:41:52;;;;;;;18.38;3.80;;;23.70;45.70;;;;;;5028035;28;20600;-42
2022/01/20 01:44:27;;;;;;;11.10;3.03;;;23.70;45.60;;;;;;5027573;28;20706;-44
2022/01/20 01:46:59;;;;;;;11.93;3.10;;;23.80;45.70;;;;;;5027968;28;20202;-42
2022/01/20 01:49:29;;;;;;;7.82;2.65;;;23.80;45.70;;;;;;5028022;28;20428;-52
2022/01/20 01:52:00;;;;;;;9.30;2.25;;;23.80;45.70;;;;;;5027447;28;20224;-42
2022/01/20 01:54:30;;;;;;;4.60;2.00;;;23.90;45.70;;;;;;5028017;28;20643;-42
2022/01/20 01:57:05;;;;;;;5.35;2.00;;;23.90;45.80;;;;;;5028203;28;20200;-43
2022/01/20 01:59:38;;;;;;;6.97;2.05;;;24.00;46.30;;;;;;5027271;28;20200;-44
2022/01/20 02:02:10;;;;;;;6.10;2.20;;;24.00;45.70;;;;;;5028770;28;20210;-44
2022/01/20 02:04:40;;;;;;;4.28;1.90;;;24.00;45.50;;;;;;5027349;28;20640;-47
2022/01/20 02:07:37;;;;;;;9.00;2.00;;;24.10;45.40;;;;;;5028023;28;20204;-49
2022/01/20 02:18:45;;;;;;;4.57;1.58;;;24.20;45.00;;;;;;5028180;28;20214;-46
2022/01/20 02:21:19;;;;;;;4.40;1.85;;;24.30;45.20;;;;;;5026917;28;20203;-46
2022/01/20 02:23:51;;;;;;;5.35;1.52;;;24.30;44.90;;;;;;5027817;28;20219;-53
2022/01/20 02:26:21;;;;;;;4.47;1.63;;;24.30;44.60;;;;;;5027731;28;20253;-52
2022/01/20 02:28:52;;;;;;;5.93;2.30;;;24.30;44.80;;;;;;5026338;28;20207;-54
2022/01/20 02:31:23;;;;;;;5.78;2.40;;;24.40;45.00;;;;;;5028167;28;20196;-51
2022/01/20 02:33:55;;;;;;;5.65;1.70;;;24.40;45.10;;;;;;5027085;28;20231;-52
2022/01/20 02:36:31;;;;;;;6.97;1.50;;;24.40;45.20;;;;;;5028186;28;20210;-50
2022/01/20 02:39:08;;;;;;;4.32;1.80;;;24.50;45.20;;;;;;5026752;28;20726;-44
2022/01/20 02:47:19;;;;;;;3.20;1.20;;;24.60;45.10;;;;;;5027484;28;20682;-44
2022/01/20 02:49:50;;;;;;;4.03;1.42;;;24.60;44.90;;;;;;5027304;28;20203;-44
2022/01/20 02:52:23;;;;;;;4.70;1.30;;;24.60;44.80;;;;;;5026729;28;20219;-44
2022/01/20 02:54:55;;;;;;;3.40;1.08;;;24.60;44.30;;;;;;5027299;28;20212;-45
2022/01/20 02:57:26;;;;;;;2.53;1.00;;;24.60;43.80;;;;;;5027565;28;20307;-50
2022/01/20 02:59:57;;;;;;;4.90;1.40;;;24.60;43.50;;;;;;5026936;28;20254;-54
2022/01/20 03:02:28;;;;;;;5.65;1.50;;;24.60;43.60;;;;;;5026291;28;20219;-46
2022/01/20 03:04:59;;;;;;;5.47;1.10;;;24.70;43.90;;;;;;5026946;28;20231;-44
2022/01/20 03:07:31;;;;;;;3.90;1.27;;;24.70;44.10;;;;;;5026845;28;20275;-44
2022/01/20 03:10:02;;;;;;;2.90;1.05;;;24.70;44.10;;;;;;5027016;28;20674;-47
2022/01/20 03:12:32;;;;;;;4.57;1.42;;;24.70;44.10;;;;;;5025698;28;20228;-47
2022/01/20 03:15:03;;;;;;;4.20;0.90;;;24.70;44.00;;;;;;5027239;28;20302;-46
2022/01/20 03:17:34;;;;;;;2.67;0.90;;;24.70;44.00;;;;;;5025800;28;20258;-44
2022/01/20 03:20:05;;;;;;;3.78;1.20;;;24.70;44.10;;;;;;5027420;28;20279;-50
2022/01/20 03:22:37;;;;;;;2.83;0.80;;;24.70;44.10;;;;;;5026552;28;20204;-53
2022/01/20 03:25:09;;;;;;;2.03;0.90;;;24.70;44.00;;;;;;5026884;28;20220;-44
2022/01/20 03:27:40;;;;;;;1.90;1.00;;;24.70;44.00;;;;;;5027141;28;20653;-45
2022/01/20 03:30:11;;;;;;;0.98;0.88;;;24.70;44.00;;;;;;5026670;28;20630;-46
2022/01/20 03:32:42;;;;;;;2.33;0.90;;;24.70;44.10;;;;;;5027554;28;20224;-45
2022/01/20 03:35:13;;;;;;;1.13;0.50;;;24.70;43.90;;;;;;5026421;28;20224;-46
2022/01/20 03:37:46;;;;;;;3.22;1.10;;;24.70;43.90;;;;;;5026332;28;20266;-45
2022/01/20 03:40:17;;;;;;;2.83;0.98;;;24.70;43.70;;;;;;5026428;28;20258;-49
2022/01/20 03:42:48;;;;;;;2.05;0.82;;;24.70;44.40;;;;;;5026654;28;20208;-48
2022/01/20 03:45:19;;;;;;;3.00;0.90;;;24.70;43.80;;;;;;5024946;28;20298;-56
2022/01/20 03:47:51;;;;;;;2.53;0.70;;;24.70;43.80;;;;;;5027344;28;20675;-52
2022/01/20 03:53:06;;;;;;;4.28;1.25;;;24.70;43.60;;;;;;5029028;28;20586;-53
2022/01/20 03:55:37;;;;;;;2.42;1.00;;;24.70;43.70;;;;;;5030606;28;20841;-45
2022/01/20 03:58:07;;;;;;;4.07;1.08;;;24.60;43.50;;;;;;5030368;28;20204;-53
2022/01/20 04:00:38;;;;;;;1.98;0.70;;;24.60;43.40;;;;;;5030421;28;20250;-56
2022/01/20 04:03:09;;;;;;;4.57;1.10;;;24.60;43.30;;;;;;5029980;28;20258;-45
2022/01/20 04:05:50;;;;;;;5.25;1.30;;;24.60;43.20;;;;;;5030368;28;20662;-43
2022/01/20 04:08:23;;;;;;;3.30;1.02;;;24.60;43.20;;;;;;5029708;28;20215;-43
2022/01/20 04:10:53;;;;;;;3.75;1.13;;;24.60;43.20;;;;;;5029865;28;20250;-48
2022/01/20 04:13:28;;;;;;;6.82;1.25;;;24.60;43.20;;;;;;5030257;28;20266;-50
2022/01/20 04:15:59;;;;;;;2.05;1.00;;;24.60;43.40;;;;;;5029747;28;20286;-51
2022/01/20 04:18:31;;;;;;;4.00;1.30;;;24.70;43.40;;;;;;5028742;28;20234;-46
2022/01/20 04:21:01;;;;;;;2.42;0.80;;;24.70;43.20;;;;;;5029380;28;20258;-52
2022/01/20 04:23:34;;;;;;;2.03;0.90;;;24.70;43.00;;;;;;5029935;28;20212;-49
2022/01/20 04:26:04;;;;;;;2.60;0.90;;;24.70;42.70;;;;;;5029579;28;20730;-43
2022/01/20 04:28:35;;;;;;;2.38;0.90;;;24.70;42.60;;;;;;5030403;28;20263;-44
2022/01/20 04:31:05;;;;;;;3.80;0.70;;;24.70;42.50;;;;;;5029728;28;20270;-45
2022/01/20 04:33:36;;;;;;;2.70;0.73;;;24.70;42.10;;;;;;5029006;28;20258;-44
2022/01/20 04:36:07;;;;;;;4.45;0.70;;;24.70;42.00;;;;;;5029332;28;20196;-50
2022/01/20 04:38:40;;;;;;;0.93;0.60;;;24.70;41.80;;;;;;5029913;28;20247;-45
2022/01/20 04:41:10;;;;;;;1.10;0.60;;;24.70;41.80;;;;;;5029546;28;20482;-50
2022/01/20 04:43:41;;;;;;;3.25;0.73;;;24.70;41.90;;;;;;5029146;28;20270;-46
2022/01/20 04:46:18;;;;;;;1.90;0.90;;;24.70;42.00;;;;;;5028759;28;20254;-44
2022/01/20 04:49:03;;;;;;;3.53;0.98;;;24.70;42.00;;;;;;5028950;28;20192;-44
2022/01/20 04:57:17;;;;;;;4.90;1.67;;;24.80;42.10;;;;;;5028815;28;20258;-47
2022/01/20 04:59:49;;;;;;;3.50;1.15;;;24.80;42.00;;;;;;5029119;28;20199;-50
2022/01/20 05:02:20;;;;;;;6.20;1.60;;;24.80;42.10;;;;;;5028800;28;20326;-47
2022/01/20 05:04:51;;;;;;;4.57;1.40;;;24.80;42.00;;;;;;5029078;28;20302;-46
2022/01/20 05:07:25;;;;;;;3.80;1.35;;;24.90;42.00;;;;;;5028965;28;20552;-43
2022/01/20 05:09:57;;;;;;;5.43;1.20;;;24.90;42.00;;;;;;5028288;28;20254;-45
2022/01/20 05:12:37;;;;;;;4.90;1.30;;;24.90;41.80;;;;;;5028682;28;20290;-44
2022/01/20 05:15:09;;;;;;;4.80;1.70;;;24.90;41.80;;;;;;5029265;28;20322;-44
2022/01/20 05:17:39;;;;;;;6.32;1.60;;;24.90;41.70;;;;;;5028752;28;20270;-47
2022/01/20 05:20:11;;;;;;;4.32;1.50;;;24.90;41.60;;;;;;5028348;28;20250;-44
2022/01/20 05:22:41;;;;;;;3.25;1.27;;;24.90;41.60;;;;;;5028728;28;20258;-43
2022/01/20 05:25:14;;;;;;;4.90;1.58;;;24.90;41.50;;;;;;5028835;28;20239;-45
2022/01/20 05:27:45;;;;;;;3.08;1.15;;;24.90;41.40;;;;;;5028597;28;20312;-45
2022/01/20 05:30:16;;;;;;;7.38;1.83;;;24.90;41.40;;;;;;5028880;28;20258;-45
2022/01/20 05:32:46;;;;;;;4.38;1.38;;;25.00;41.30;;;;;;5027979;28;20214;-44
2022/01/20 05:35:17;;;;;;;4.43;1.50;;;24.90;41.30;;;;;;5028608;28;20228;-43
2022/01/20 05:37:47;;;;;;;4.75;1.40;;;25.00;41.30;;;;;;5026851;28;20196;-44
2022/01/20 05:40:20;;;;;;;1.92;1.02;;;25.00;41.30;;;;;;5027553;28;20197;-48
2022/01/20 05:42:51;;;;;;;3.55;1.02;;;25.00;41.20;;;;;;5028128;28;20193;-46
2022/01/20 05:45:22;;;;;;;3.90;1.30;;;25.00;41.20;;;;;;5028187;28;20270;-44
2022/01/20 05:48:00;;;;;;;2.65;1.10;;;25.00;41.20;;;;;;5027337;28;20214;-43
2022/01/20 05:50:30;;;;;;;3.60;1.40;;;25.00;41.10;;;;;;5028044;28;20199;-43
2022/01/20 05:53:02;;;;;;;4.55;1.45;;;25.00;40.70;;;;;;5028229;28;20262;-44
2022/01/20 05:55:35;;;;;;;4.45;1.20;;;25.00;40.50;;;;;;5028085;28;20226;-46
2022/01/20 05:58:07;;;;;;;3.65;0.95;;;25.00;40.50;;;;;;5027891;28;20223;-50
2022/01/20 06:00:40;;;;;;;5.57;1.30;;;25.00;40.50;;;;;;5028166;28;20208;-43
2022/01/20 06:05:57;;;;;;;6.75;1.23;;;24.90;40.50;;;;;;5027220;28;20269;-43
2022/01/20 06:08:28;;;;;;;3.10;1.23;;;24.90;40.50;;;;;;5027533;28;20201;-44
2022/01/20 06:11:00;;;;;;;4.95;1.42;;;24.90;40.50;;;;;;5027438;28;20242;-44
2022/01/20 06:13:31;;;;;;;8.05;1.77;;;24.90;40.60;;;;;;5026239;28;20281;-45
2022/01/20 06:16:02;;;;;;;4.60;1.40;;;24.90;40.60;;;;;;5027992;28;20200;-44
2022/01/20 06:18:33;;;;;;;6.72;1.60;;;24.90;40.60;;;;;;5027916;28;20207;-49
2022/01/20 06:21:04;;;;;;;4.80;1.50;;;24.90;40.70;;;;;;5027993;28;20250;-52
2022/01/20 06:23:35;;;;;;;5.47;1.50;;;24.90;40.60;;;;;;5027588;28;20266;-50
2022/01/20 06:26:07;;;;;;;5.15;1.30;;;24.90;40.60;;;;;;5028388;28;20262;-43
2022/01/20 06:28:40;;;;;;;5.03;1.58;;;25.00;40.60;;;;;;5027416;28;20204;-45
2022/01/20 06:31:11;;;;;;;4.05;1.70;;;24.90;40.50;;;;;;5027919;28;20276;-43
2022/01/20 06:33:41;;;;;;;4.40;1.17;;;24.90;40.40;;;;;;5026834;28;20220;-43
2022/01/20 06:36:12;;;;;;;4.05;1.40;;;24.90;40.40;;;;;;5028135;28;20684;-42
2022/01/20 06:38:43;;;;;;;3.75;1.45;;;24.90;40.60;;;;;;5026732;28;20770;-42
2022/01/20 06:41:15;;;;;;;3.13;1.20;;;25.00;40.70;;;;;;5027677;28;20226;-48
2022/01/20 06:43:46;;;;;;;3.03;1.20;;;25.00;40.80;;;;;;5026663;28;20270;-46
2022/01/20 06:46:17;;;;;;;3.90;1.25;;;24.90;41.00;;;;;;5026391;28;20250;-43
2022/01/20 06:48:47;;;;;;;2.50;1.20;;;24.90;41.10;;;;;;5026976;28;20215;-46
2022/01/20 06:51:18;;;;;;;4.07;1.38;;;25.00;41.20;;;;;;5026864;28;20208;-43
2022/01/20 06:53:49;;;;;;;2.13;1.13;;;24.90;41.40;;;;;;5029416;28;20216;-46
2022/01/20 06:56:21;;;;;;;2.38;1.25;;;24.90;41.30;;;;;;5028686;28;20365;-43
2022/01/20 06:58:51;;;;;;;5.72;1.60;;;24.90;41.30;;;;;;5027521;28;20274;-43
2022/01/20 07:01:22;;;;;;;2.25;0.90;;;24.90;41.40;;;;;;5025350;28;20210;-53
2022/01/20 07:03:53;;;;;;;2.58;0.77;;;24.90;41.50;;;;;;5027254;28;20282;-44
2022/01/20 07:06:23;;;;;;;2.10;0.95;;;24.90;41.60;;;;;;5026563;28;20231;-44
2022/01/20 07:08:54;;;;;;;1.85;0.93;;;24.80;41.60;;;;;;5027427;28;20200;-44
2022/01/20 07:11:26;;;;;;;2.42;1.00;;;24.80;41.70;;;;;;5021761;28;20282;-45
2022/01/20 07:13:56;;;;;;;4.35;1.00;;;24.80;41.70;;;;;;5028620;28;20246;-45
2022/01/20 07:16:28;;;;;;;3.28;0.90;;;24.80;41.70;;;;;;5028315;28;20235;-49
2022/01/20 07:18:59;;;;;;;1.20;0.65;;;24.80;41.70;;;;;;5027028;28;20196;-46
2022/01/20 07:21:30;;;;;;;1.95;1.15;;;24.80;42.00;;;;;;5028374;28;20188;-52
2022/01/20 07:24:00;;;;;;;2.55;1.00;;;24.80;42.30;;;;;;5028122;28;20224;-45
2022/01/20 07:26:33;;;;;;;3.10;0.90;;;24.80;42.30;;;;;;5031875;28;20261;-49
2022/01/20 07:29:03;;;;;;;2.55;0.90;;;24.80;42.20;;;;;;5023851;28;20208;-44
2022/01/20 07:31:34;;;;;;;1.83;0.90;;;24.70;42.20;;;;;;5029615;28;20256;-46
2022/01/20 07:34:05;;;;;;;2.45;0.90;;;24.70;42.20;;;;;;5029535;28;20281;-44
2022/01/20 07:36:35;;;;;;;2.03;0.70;;;24.70;42.30;;;;;;5029584;28;20794;-47
2022/01/20 07:39:06;;;;;;;1.80;0.88;;;24.70;42.30;;;;;;5030216;28;20291;-44
2022/01/20 07:41:38;;;;;;;4.05;0.80;;;24.70;42.40;;;;;;5030085;28;20283;-47
2022/01/20 07:44:09;;;;;;;1.38;0.70;;;24.60;42.30;;;;;;5030255;28;20756;-46
2022/01/20 07:46:40;;;;;;;2.25;0.90;;;24.60;42.30;;;;;;5030204;28;20204;-44
2022/01/20 07:49:10;;;;;;;2.38;0.70;;;24.60;42.40;;;;;;5030916;28;20291;-44
2022/01/20 07:51:41;;;;;;;2.78;0.85;;;24.50;42.40;;;;;;5030408;28;20278;-44
2022/01/20 07:54:11;;;;;;;1.67;0.80;;;24.50;42.50;;;;;;5030058;28;20311;-45
2022/01/20 07:56:44;;;;;;;2.13;0.85;;;24.50;42.60;;;;;;5030283;28;20196;-53
2022/01/20 07:59:15;;;;;;;1.35;0.63;;;24.50;42.60;;;;;;5029949;28;20200;-47
2022/01/20 08:01:45;;;;;;;1.35;0.75;;;24.50;42.60;;;;;;5030493;28;20692;-54
2022/01/20 08:04:16;;;;;;;3.25;0.77;;;24.50;42.60;;;;;;5029518;28;20341;-55
2022/01/20 08:06:47;;;;;;;1.52;0.70;;;24.40;42.80;;;;;;5029298;28;20196;-48
2022/01/20 08:09:17;;;;;;;1.60;0.70;;;24.40;42.90;;;;;;5030392;28;20258;-57
2022/01/20 08:11:50;;;;;;;2.25;1.10;;;24.40;42.90;;;;;;5029994;28;20707;-55
2022/01/20 08:14:20;;;;;;;0.95;0.70;;;24.40;43.00;;;;;;5030110;28;20228;-52
2022/01/20 08:16:51;;;;;;;1.15;0.70;;;24.40;43.10;;;;;;5029476;28;20204;-48
2022/01/20 08:19:21;;;;;;;2.53;0.75;;;24.40;43.10;;;;;;5030109;28;20289;-47
2022/01/20 08:21:52;;;;;;;3.15;0.93;;;24.30;43.20;;;;;;5029562;28;20761;-46
2022/01/20 08:24:23;;;;;;;2.40;1.00;;;24.30;43.30;;;;;;5029515;28;20696;-48
2022/01/20 08:26:55;;;;;;;1.45;0.60;;;24.30;43.20;;;;;;5029994;28;20196;-42
2022/01/20 08:29:26;;;;;;;0.90;0.60;;;24.30;43.30;;;;;;5029642;28;20258;-56
2022/01/20 08:31:56;;;;;;;1.08;0.60;;;24.30;43.50;;;;;;5029728;28;20202;-42
2022/01/20 08:34:27;;;;;;;2.95;1.02;;;24.30;43.60;;;;;;5028994;28;20302;-42
2022/01/20 08:36:59;;;;;;;1.17;0.77;;;24.30;43.70;;;;;;5029067;28;20192;-42
2022/01/20 08:39:45;;;;;;;1.60;0.68;;;24.20;43.80;;;;;;5029987;28;20279;-48
2022/01/20 08:42:17;;;;;;;1.73;0.82;;;24.20;43.80;;;;;;5029016;28;20204;-45
2022/01/20 08:44:48;;;;;;;1.25;0.70;;;24.20;43.90;;;;;;5029585;28;20212;-53
2022/01/20 08:47:20;;;;;;;1.27;0.50;;;24.20;44.00;;;;;;5029189;28;20196;-56
2022/01/20 08:49:52;;;;;;;3.08;0.88;;;24.20;44.10;;;;;;5029671;28;20576;-55
2022/01/20 08:52:23;;;;;;;1.02;0.60;;;24.20;44.10;;;;;;5028830;28;20290;-51
2022/01/20 08:54:53;;;;;;;1.42;0.80;;;24.20;44.10;;;;;;5028949;28;20231;-57
2022/01/20 08:57:26;;;;;;;2.42;0.70;;;24.20;44.10;;;;;;5028749;28;20250;-42
2022/01/20 08:59:57;;;;;;;1.77;0.73;;;24.20;44.20;;;;;;5028971;28;20208;-56
2022/01/20 09:02:28;;;;;;;2.05;0.90;;;24.10;44.10;;;;;;5029212;28;20669;-48
2022/01/20 09:04:59;;;;;;;1.95;0.60;;;24.10;44.10;;;;;;5029234;28;20625;-59
2022/01/20 09:07:29;;;;;;;1.58;0.77;;;24.10;44.10;;;;;;5029253;28;20196;-42
2022/01/20 09:10:03;;;;;;;1.85;0.70;;;24.10;44.00;;;;;;5029118;28;20200;-53
2022/01/20 09:15:32;;;;;;;0.55;0.50;;;24.10;44.10;;;;;;5029487;28;20601;-42
2022/01/20 09:18:06;;;;;;;0.88;0.75;;;24.00;44.20;;;;;;5027829;28;20196;-44
2022/01/20 09:20:37;;;;;;;0.88;0.63;;;24.00;44.30;;;;;;5028505;28;20227;-42
2022/01/20 09:23:08;;;;;;;1.35;0.80;;;24.00;44.30;;;;;;5028920;28;20204;-44
2022/01/20 09:25:41;;;;;;;2.40;1.00;;;24.00;44.40;;;;;;5028855;28;20289;-46
2022/01/20 09:28:14;;;;;;;1.25;0.68;;;24.00;44.40;;;;;;5027946;28;20206;-59
2022/01/20 09:30:46;;;;;;;1.55;0.70;;;23.90;44.50;;;;;;5028208;28;20246;-58
2022/01/20 09:33:24;;;;;;;2.05;0.95;;;23.90;44.60;;;;;;5028330;28;20188;-49
2022/01/20 09:35:55;;;;;;;2.15;0.73;;;24.00;44.60;;;;;;5028465;28;20259;-46
2022/01/20 09:38:26;;;;;;;1.33;0.90;;;23.90;44.60;;;;;;5028583;28;20287;-54
2022/01/20 09:40:56;;;;;;;1.13;0.88;;;23.90;44.80;;;;;;5028479;28;20283;-46
2022/01/20 09:43:29;;;;;;;1.20;0.70;;;23.90;44.80;;;;;;5028251;28;20283;-52
2022/01/20 09:46:00;;;;;;;1.98;0.63;;;23.80;44.80;;;;;;5028509;28;20395;-49
2022/01/20 09:48:32;;;;;;;1.55;0.77;;;23.90;44.90;;;;;;5027843;28;20696;-42
2022/01/20 09:51:03;;;;;;;0.75;0.65;;;23.80;44.90;;;;;;5028792;28;20211;-48
2022/01/20 09:53:34;;;;;;;1.27;0.60;;;23.80;44.70;;;;;;5027918;28;20204;-42
2022/01/20 09:56:05;;;;;;;1.35;0.80;;;23.80;45.40;;;;;;5028349;28;20220;-43
2022/01/20 09:58:37;;;;;;;1.85;0.93;;;23.80;44.70;;;;;;5027523;28;20247;-40
2022/01/20 10:01:08;;;;;;;1.55;1.10;;;23.80;44.80;;;;;;5028474;28;20204;-41
2022/01/20 10:03:40;;;;;;;1.33;0.80;;;23.80;44.90;;;;;;5027933;28;20212;-40
2022/01/20 10:06:11;;;;;;;1.98;1.08;;;23.70;44.80;;;;;;5027941;28;20212;-40
2022/01/20 10:08:41;;;;;;;1.42;0.95;;;23.70;44.90;;;;;;5027702;28;20258;-42
2022/01/20 10:11:13;;;;;;;1.80;1.00;;;23.70;44.90;;;;;;5026770;28;20254;-40
2022/01/20 10:13:45;;;;;;;2.17;1.00;;;23.70;44.90;;;;;;5028482;28;20200;-40
2022/01/20 10:16:17;;;;;;;1.00;0.80;;;23.70;45.00;;;;;;5026981;28;20223;-40
2022/01/20 10:18:53;;;;;;;1.75;0.90;;;23.70;45.00;;;;;;5028012;28;20261;-39
2022/01/20 10:21:31;;;;;;;1.50;0.80;;;23.60;45.10;;;;;;5028335;28;20208;-39
2022/01/20 10:24:08;;;;;;;1.73;1.00;;;23.60;45.00;;;;;;5028204;28;20216;-45
2022/01/20 10:26:39;;;;;;;3.03;0.70;;;23.60;45.10;;;;;;5027453;28;20857;-42
2022/01/20 10:29:13;;;;;;;1.42;0.82;;;23.60;45.20;;;;;;5027040;28;20262;-43
2022/01/20 10:31:45;;;;;;;1.10;0.85;;;23.60;45.20;;;;;;5027966;28;20222;-41
2022/01/20 10:34:28;;;;;;;1.88;0.98;;;23.50;45.20;;;;;;5027555;28;20288;-42
2022/01/20 10:37:00;;;;;;;1.50;0.75;;;23.50;45.20;;;;;;5027851;28;20649;-45
2022/01/20 10:39:32;;;;;;;1.35;0.70;;;23.50;45.20;;;;;;5027884;28;20255;-40
2022/01/20 10:42:05;;;;;;;2.22;0.77;;;23.50;45.20;;;;;;5027448;28;20466;-40
2022/01/20 10:44:46;;;;;;;1.05;0.70;;;23.50;45.30;;;;;;5027572;28;20216;-40
2022/01/20 10:47:18;;;;;;;0.60;0.60;;;23.50;45.30;;;;;;5027059;28;20196;-40
2022/01/20 10:49:50;;;;;;;1.20;0.80;;;23.40;45.30;;;;;;5028027;28;20196;-42
2022/01/20 10:52:22;;;;;;;1.10;0.70;;;23.40;45.20;;;;;;5027087;28;20600;-40
2022/01/20 10:54:54;;;;;;;2.15;0.70;;;23.40;45.30;;;;;;5026973;28;20741;-40
2022/01/20 10:57:30;;;;;;;1.17;0.70;;;23.40;45.30;;;;;;5027732;28;20204;-46
2022/01/20 11:00:04;;;;;;;1.55;0.85;;;23.40;45.30;;;;;;5030176;28;20199;-43
2022/01/20 11:02:35;;;;;;;1.67;0.63;;;23.30;45.30;;;;;;5032016;28;20208;-40
2022/01/20 11:05:06;;;;;;;2.03;0.90;;;23.30;45.30;;;;;;5029714;28;20275;-42
2022/01/20 11:07:38;;;;;;;1.02;0.70;;;23.30;45.40;;;;;;5029328;28;20641;-42
2022/01/20 11:10:11;;;;;;;1.38;0.80;;;23.30;45.40;;;;;;5030494;28;20211;-40
2022/01/20 11:12:42;;;;;;;0.70;0.70;;;23.30;45.40;;;;;;5030451;28;20200;-46
2022/01/20 11:15:16;;;;;;;1.38;0.80;;;23.30;45.40;;;;;;5032848;28;20220;-45
2022/01/20 11:17:53;;;;;;;1.25;0.80;;;23.20;45.40;;;;;;5034314;28;20195;-44
2022/01/20 11:20:27;;;;;;;0.70;0.70;;;23.30;45.60;;;;;;5033105;28;20196;-43
2022/01/20 11:22:59;;;;;;;0.98;0.52;;;23.20;45.50;;;;;;5032582;28;20199;-40
2022/01/20 11:25:31;;;;;;;1.10;0.90;;;23.20;45.50;;;;;;5032055;28;20670;-41
2022/01/20 11:28:12;;;;;;;1.40;0.75;;;23.10;45.60;;;;;;5031774;28;20262;-50
2022/01/20 11:30:56;;;;;;;1.00;0.70;;;23.20;45.60;;;;;;5031628;28;20813;-48
2022/01/20 11:33:36;;;;;;;0.73;0.60;;;23.10;45.60;;;;;;5016734;28;20200;-44
2022/01/20 11:36:08;;;;;;;0.82;0.60;;;23.10;45.60;;;;;;5031988;28;20220;-40
2022/01/20 11:38:46;;;;;;;1.40;0.77;;;23.00;45.60;;;;;;5032065;28;20211;-51
2022/01/20 11:41:17;;;;;;;1.48;0.70;;;23.00;45.60;;;;;;5031815;28;20582;-47
2022/01/20 11:43:49;;;;;;;1.50;0.80;;;23.00;45.70;;;;;;5031196;28;20615;-45
2022/01/20 11:46:23;;;;;;;0.63;0.60;;;23.00;45.60;;;;;;5022752;28;20231;-45
2022/01/20 11:48:59;;;;;;;0.47;0.40;;;23.00;45.70;;;;;;5032024;28;20200;-49
2022/01/20 11:51:30;;;;;;;0.70;0.60;;;23.00;45.70;;;;;;5031358;28;20192;-46
2022/01/20 11:54:02;;;;;;;0.98;0.68;;;22.90;45.70;;;;;;5031661;28;20274;-49
2022/01/20 11:56:35;;;;;;;0.70;0.70;;;22.90;45.80;;;;;;5031835;28;20239;-52
2022/01/20 11:59:06;;;;;;;0.80;0.60;;;22.90;45.80;;;;;;5031301;28;20203;-41
2022/01/20 12:01:49;;;;;;;1.33;0.70;;;22.90;45.80;;;;;;5031862;28;20200;-55
2022/01/20 12:04:20;;;;;;;1.00;0.60;;;22.80;45.80;;;;;;5031758;28;20250;-56
2022/01/20 12:06:51;;;;;;;0.98;0.70;;;22.80;45.80;;;;;;5031813;28;20258;-53
2022/01/20 12:09:34;;;;;;;0.85;0.60;;;22.80;45.80;;;;;;5031825;28;20238;-45
2022/01/20 12:12:05;;;;;;;1.08;0.70;;;22.80;45.90;;;;;;5029984;28;20208;-45
2022/01/20 12:14:40;;;;;;;1.23;0.68;;;22.80;45.90;;;;;;5018478;28;20277;-49
2022/01/20 12:17:14;;;;;;;1.40;0.70;;;22.70;45.90;;;;;;5031974;28;20222;-49
2022/01/20 12:19:49;;;;;;;0.73;0.50;;;22.70;46.00;;;;;;5031541;28;20203;-40
2022/01/20 12:22:19;;;;;;;2.17;0.80;;;22.70;46.00;;;;;;5031191;28;20199;-39
2022/01/20 12:24:55;;;;;;;0.68;0.60;;;22.70;46.00;;;;;;5030763;28;20212;-43
2022/01/20 12:27:27;;;;;;;0.50;0.50;;;22.70;46.00;;;;;;5019369;28;20204;-42
2022/01/20 12:29:58;;;;;;;0.82;0.77;;;22.60;46.00;;;;;;5030842;28;20243;-41
2022/01/20 12:32:30;;;;;;;0.82;0.65;;;22.60;46.10;;;;;;5031231;28;20199;-46
2022/01/20 12:35:02;;;;;;;1.15;0.68;;;22.60;46.00;;;;;;5030984;28;20228;-51
2022/01/20 12:37:37;;;;;;;1.40;0.70;;;22.50;46.00;;;;;;5031104;28;20734;-44
2022/01/20 12:40:10;;;;;;;1.05;0.63;;;22.50;46.00;;;;;;5030811;28;20204;-53
2022/01/20 12:42:42;;;;;;;2.13;0.70;;;22.50;46.10;;;;;;5030854;28;20254;-47
2022/01/20 12:48:16;;;;;;;0.85;0.60;;;22.50;46.10;;;;;;5031124;28;20219;-47
2022/01/20 12:50:59;;;;;;;0.65;0.50;;;22.50;46.20;;;;;;5029878;28;20258;-40
2022/01/20 12:53:42;;;;;;;1.42;0.60;;;22.40;46.10;;;;;;5029111;28;20271;-46
2022/01/20 12:56:14;;;;;;;1.17;0.75;;;22.40;46.20;;;;;;5015586;28;20911;-44
2022/01/20 12:58:49;;;;;;;0.90;0.70;;;22.40;46.20;;;;;;5030598;28;20664;-43
2022/01/20 13:01:23;;;;;;;2.15;0.70;;;22.40;46.20;;;;;;5029244;28;20202;-47
2022/01/20 13:04:00;;;;;;;0.70;0.50;;;22.40;46.30;;;;;;5023643;28;20278;-42
2022/01/20 13:06:32;;;;;;;1.40;0.65;;;22.30;46.30;;;;;;5030430;28;20222;-49
2022/01/20 13:09:06;;;;;;;1.00;0.70;;;22.30;46.30;;;;;;5030878;28;20200;-42
2022/01/20 13:11:42;;;;;;;0.93;0.68;;;22.30;46.30;;;;;;5030542;28;20586;-40
2022/01/20 13:14:13;;;;;;;0.60;0.50;;;22.30;46.30;;;;;;5030119;28;20350;-43
2022/01/20 13:16:55;;;;;;;0.43;0.43;;;22.30;46.40;;;;;;5030543;28;20223;-40
2022/01/20 13:19:38;;;;;;;0.75;0.63;;;22.20;46.30;;;;;;5030516;28;20254;-41
2022/01/20 13:22:20;;;;;;;0.60;0.60;;;22.20;46.40;;;;;;5030327;28;20200;-45
2022/01/20 13:24:50;;;;;;;0.70;0.50;;;22.20;46.40;;;;;;5030009;28;20223;-43
2022/01/20 13:27:21;;;;;;;1.60;0.60;;;22.20;46.40;;;;;;5029030;28;20204;-43
2022/01/20 13:29:52;;;;;;;0.63;0.60;;;22.20;46.40;;;;;;5029460;28;20270;-40
2022/01/20 13:32:22;;;;;;;0.90;0.52;;;22.10;46.40;;;;;;5029576;28;20208;-47
2022/01/20 13:34:59;;;;;;;0.60;0.60;;;22.10;46.40;;;;;;5012448;28;20263;-51
2022/01/20 13:37:31;;;;;;;1.05;0.40;;;22.10;46.50;;;;;;5029770;28;20274;-43
2022/01/20 13:40:02;;;;;;;1.17;0.60;;;22.10;46.40;;;;;;5030065;28;20231;-44
2022/01/20 13:42:44;;;;;;;2.38;0.60;;;22.10;46.50;;;;;;5030035;28;20204;-42
2022/01/20 13:45:14;;;;;;;1.10;0.70;;;22.00;46.40;;;;;;5029907;28;20615;-43
2022/01/20 13:47:56;;;;;;;1.15;0.40;;;22.00;46.40;;;;;;5030412;28;20327;-39
2022/01/20 13:50:31;;;;;;;0.90;0.70;;;22.00;46.40;;;;;;5029978;28;20243;-42
2022/01/20 13:53:03;;;;;;;0.90;0.63;;;22.00;46.40;;;;;;5029638;28;20219;-44
2022/01/20 13:55:37;;;;;;;0.50;0.47;;;21.90;46.40;;;;;;5029554;28;20220;-42
2022/01/20 13:58:09;;;;;;;0.98;0.73;;;21.90;46.40;;;;;;5029497;28;20203;-40
2022/01/20 14:00:40;;;;;;;1.17;0.60;;;21.90;46.40;;;;;;5029108;28;20212;-49
2022/01/20 14:03:11;;;;;;;0.70;0.60;;;21.90;46.50;;;;;;5029399;28;20200;-46
2022/01/20 14:05:44;;;;;;;0.52;0.52;;;21.80;46.50;;;;;;5029511;28;20228;-52
2022/01/20 14:08:15;;;;;;;0.47;0.40;;;21.80;46.50;;;;;;5028166;28;20210;-46
2022/01/20 14:10:45;;;;;;;0.77;0.50;;;21.80;46.50;;;;;;5019934;28;20200;-45
2022/01/20 14:13:16;;;;;;;1.27;0.50;;;21.80;46.60;;;;;;5027669;28;20200;-42